createdAt,value
2017-07-09T00:02:18.639Z,18.73
2017-07-09T00:04:46.031Z,18.82
2017-07-09T00:07:13.434Z,18.90
2017-07-09T00:09:40.824Z,18.93
2017-07-09T00:12:08.224Z,18.93
2017-07-09T00:14:35.903Z,18.97
2017-07-09T00:17:03.309Z,18.98
2017-07-09T00:19:30.700Z,19.02
2017-07-09T00:21:58.099Z,18.94
2017-07-09T00:24:25.483Z,18.97
2017-07-09T00:26:52.888Z,18.90
2017-07-09T00:29:20.331Z,18.90
2017-07-09T00:31:47.727Z,18.94
2017-07-09T00:34:15.115Z,19.03
2017-07-09T00:36:42.536Z,18.95
2017-07-09T00:39:09.945Z,19.08
2017-07-09T00:41:37.619Z,19.00
2017-07-09T00:44:05.034Z,18.97
2017-07-09T00:46:32.423Z,19.07
2017-07-09T00:48:59.823Z,19.00
2017-07-09T00:51:27.215Z,18.97
2017-07-09T00:53:54.640Z,18.90
2017-07-09T00:56:22.019Z,18.91
2017-07-09T00:58:49.415Z,18.83
2017-07-09T01:01:16.799Z,18.88
2017-07-09T01:03:44.201Z,18.86
2017-07-09T01:06:11.595Z,18.93
2017-07-09T01:08:39.000Z,18.83
2017-07-09T01:11:06.400Z,18.91
2017-07-09T01:13:33.799Z,18.86
2017-07-09T01:16:01.194Z,18.78
2017-07-09T01:18:28.593Z,18.87
2017-07-09T01:20:55.985Z,18.88
2017-07-09T01:23:23.378Z,18.79
2017-07-09T01:25:50.772Z,18.81
2017-07-09T01:28:18.167Z,18.86
2017-07-09T01:30:45.569Z,18.82
2017-07-09T01:33:12.959Z,18.77
2017-07-09T01:35:40.352Z,18.73
2017-07-09T01:38:07.755Z,18.73
2017-07-09T01:40:35.172Z,18.64
2017-07-09T01:43:02.582Z,18.63
2017-07-09T01:45:29.968Z,18.62
2017-07-09T01:47:57.387Z,18.67
2017-07-09T01:50:24.785Z,18.49
2017-07-09T01:52:52.171Z,18.43
2017-07-09T01:55:19.899Z,18.37
2017-07-09T01:57:47.278Z,18.39
2017-07-09T02:00:14.680Z,18.42
2017-07-09T02:02:42.080Z,18.45
2017-07-09T02:05:09.491Z,18.43
2017-07-09T02:07:36.873Z,18.42
2017-07-09T02:10:04.283Z,18.36
2017-07-09T02:12:31.675Z,18.22
2017-07-09T02:14:59.067Z,18.21
2017-07-09T02:17:26.459Z,18.15
2017-07-09T02:19:53.859Z,18.25
2017-07-09T02:22:21.247Z,18.22
2017-07-09T02:24:48.664Z,18.16
2017-07-09T02:27:16.065Z,17.99
2017-07-09T02:29:43.457Z,18.09
2017-07-09T02:32:10.857Z,17.94
2017-07-09T02:34:38.252Z,17.93
2017-07-09T02:37:05.646Z,17.97
2017-07-09T02:39:33.047Z,17.93
2017-07-09T02:42:00.447Z,17.89
2017-07-09T02:44:27.856Z,17.91
2017-07-09T02:46:55.268Z,17.97
2017-07-09T02:49:22.665Z,17.99
2017-07-09T02:51:50.055Z,17.96
2017-07-09T02:54:17.452Z,17.97
2017-07-09T02:56:44.839Z,17.93
2017-07-09T02:59:12.247Z,17.98
2017-07-09T03:01:39.640Z,18.09
2017-07-09T03:04:07.033Z,18.06
2017-07-09T03:06:34.436Z,18.10
2017-07-09T03:09:01.823Z,18.06
2017-07-09T03:11:29.223Z,18.04
2017-07-09T03:13:56.622Z,18.03
2017-07-09T03:16:24.026Z,17.90
2017-07-09T03:18:51.409Z,17.72
2017-07-09T03:21:18.817Z,17.63
2017-07-09T03:23:46.213Z,17.66
2017-07-09T03:26:13.603Z,17.53
2017-07-09T03:28:41.004Z,17.36
2017-07-09T03:31:08.395Z,17.30
2017-07-09T03:33:36.107Z,17.35
2017-07-09T03:36:03.500Z,17.30
2017-07-09T03:38:30.898Z,17.26
2017-07-09T03:40:58.316Z,17.18
2017-07-09T03:43:25.707Z,17.34
2017-07-09T03:45:53.108Z,17.53
2017-07-09T03:48:20.520Z,17.56
2017-07-09T03:50:47.930Z,17.59
2017-07-09T03:53:15.320Z,17.61
2017-07-09T03:55:42.720Z,17.68
2017-07-09T03:58:10.111Z,17.82
2017-07-09T04:00:37.510Z,17.76
2017-07-09T04:03:04.913Z,17.80
2017-07-09T04:05:32.321Z,17.86
2017-07-09T04:07:59.724Z,17.92
2017-07-09T04:10:27.108Z,17.82
2017-07-09T04:12:54.512Z,17.68
2017-07-09T04:15:21.924Z,17.61
2017-07-09T04:17:49.314Z,17.59
2017-07-09T04:20:16.704Z,17.67
2017-07-09T04:22:44.106Z,17.68
2017-07-09T04:25:11.504Z,17.67
2017-07-09T04:27:38.904Z,17.67
2017-07-09T04:30:06.291Z,17.66
2017-07-09T04:32:33.691Z,17.57
2017-07-09T04:35:01.091Z,17.54
2017-07-09T04:37:28.488Z,17.44
2017-07-09T04:39:55.879Z,17.54
2017-07-09T04:42:23.282Z,17.46
2017-07-09T04:44:50.663Z,17.37
2017-07-09T04:47:18.063Z,17.37
2017-07-09T04:49:45.455Z,17.27
2017-07-09T04:52:12.855Z,17.33
2017-07-09T04:54:40.269Z,17.39
2017-07-09T04:57:07.683Z,17.23
2017-07-09T04:59:35.075Z,17.07
2017-07-09T05:02:02.481Z,17.17
2017-07-09T05:04:29.875Z,17.09
2017-07-09T05:06:57.271Z,17.14
2017-07-09T05:09:24.692Z,17.13
2017-07-09T05:11:52.088Z,17.16
2017-07-09T05:14:19.482Z,17.17
2017-07-09T05:16:46.885Z,17.25
2017-07-09T05:19:14.281Z,17.15
2017-07-09T05:21:41.680Z,17.23
2017-07-09T05:24:09.065Z,17.31
2017-07-09T05:26:37.013Z,17.23
2017-07-09T05:29:04.408Z,17.35
2017-07-09T05:31:31.806Z,17.29
2017-07-09T05:33:59.207Z,17.27
2017-07-09T05:36:26.604Z,17.33
2017-07-09T05:38:54.007Z,17.33
2017-07-09T05:41:21.402Z,17.32
2017-07-09T05:43:48.809Z,17.32
2017-07-09T05:46:16.205Z,17.39
2017-07-09T05:48:43.599Z,17.55
2017-07-09T05:51:11.219Z,17.47
2017-07-09T05:53:38.611Z,17.48
2017-07-09T05:56:06.009Z,17.55
2017-07-09T05:58:33.403Z,17.56
2017-07-09T06:01:00.819Z,17.64
2017-07-09T06:03:28.225Z,17.72
2017-07-09T06:05:55.619Z,17.87
2017-07-09T06:08:23.023Z,17.88
2017-07-09T06:10:50.410Z,17.92
2017-07-09T06:13:17.819Z,17.91
2017-07-09T06:15:45.211Z,17.98
2017-07-09T06:18:12.615Z,18.14
2017-07-09T06:20:40.013Z,18.17
2017-07-09T06:23:07.421Z,18.16
2017-07-09T06:25:34.832Z,18.24
2017-07-09T06:28:02.219Z,18.23
2017-07-09T06:30:29.614Z,18.29
2017-07-09T06:32:57.260Z,18.32
2017-07-09T06:35:24.657Z,18.34
2017-07-09T06:37:52.232Z,18.38
2017-07-09T06:40:19.948Z,18.41
2017-07-09T06:42:47.352Z,18.40
2017-07-09T06:45:14.754Z,18.55
2017-07-09T06:47:42.180Z,18.54
2017-07-09T06:50:09.575Z,18.74
2017-07-09T06:52:36.972Z,18.82
2017-07-09T06:55:04.384Z,18.85
2017-07-09T06:57:31.780Z,19.01
2017-07-09T06:59:59.175Z,19.15
2017-07-09T07:02:26.568Z,19.23
2017-07-09T07:04:54.201Z,19.15
2017-07-09T07:07:21.592Z,19.30
2017-07-09T07:09:48.989Z,19.38
2017-07-09T07:12:16.372Z,19.28
2017-07-09T07:14:43.774Z,19.31
2017-07-09T07:17:11.175Z,19.26
2017-07-09T07:19:38.564Z,19.36
2017-07-09T07:22:05.963Z,19.35
2017-07-09T07:24:33.359Z,19.46
2017-07-09T07:27:00.784Z,19.64
2017-07-09T07:29:28.181Z,19.71
2017-07-09T07:31:55.571Z,19.96
2017-07-09T07:34:22.971Z,20.21
2017-07-09T07:36:50.358Z,20.15
2017-07-09T07:39:17.756Z,20.21
2017-07-09T07:41:45.144Z,20.31
2017-07-09T07:44:12.556Z,20.33
2017-07-09T07:46:39.944Z,20.34
2017-07-09T07:49:07.351Z,20.32
2017-07-09T07:51:34.743Z,20.28
2017-07-09T07:54:02.143Z,20.28
2017-07-09T07:56:29.540Z,20.37
2017-07-09T07:58:56.952Z,20.31
2017-07-09T08:01:24.344Z,20.40
2017-07-09T08:03:51.735Z,20.53
2017-07-09T08:06:19.136Z,20.57
2017-07-09T08:08:46.526Z,20.73
2017-07-09T08:11:14.139Z,20.82
2017-07-09T08:13:41.855Z,20.89
2017-07-09T08:16:09.259Z,21.03
2017-07-09T08:18:36.651Z,20.90
2017-07-09T08:21:04.043Z,21.07
2017-07-09T08:23:31.436Z,21.13
2017-07-09T08:25:58.839Z,21.26
2017-07-09T08:28:26.291Z,21.35
2017-07-09T08:30:53.700Z,21.44
2017-07-09T08:33:21.147Z,21.59
2017-07-09T08:35:48.557Z,21.49
2017-07-09T08:38:15.958Z,21.70
2017-07-09T08:40:43.351Z,21.62
2017-07-09T08:43:10.740Z,21.87
2017-07-09T08:45:38.136Z,22.04
2017-07-09T08:48:05.528Z,22.17
2017-07-09T08:50:32.927Z,22.21
2017-07-09T08:53:02.937Z,22.15
2017-07-09T08:55:30.347Z,22.40
2017-07-09T08:57:57.727Z,22.57
2017-07-09T09:00:25.127Z,22.70
2017-07-09T09:02:52.519Z,22.66
2017-07-09T09:05:19.917Z,22.62
2017-07-09T09:07:47.303Z,22.71
2017-07-09T09:10:14.709Z,22.85
2017-07-09T09:12:42.094Z,22.86
2017-07-09T09:15:09.486Z,22.91
2017-07-09T09:17:36.884Z,23.12
2017-07-09T09:20:04.288Z,23.27
2017-07-09T09:22:31.680Z,23.41
2017-07-09T09:24:59.068Z,23.40
2017-07-09T09:27:26.475Z,23.59
2017-07-09T09:29:53.885Z,23.59
2017-07-09T09:32:21.288Z,23.65
2017-07-09T09:34:48.672Z,23.76
2017-07-09T09:37:16.407Z,23.86
2017-07-09T09:39:43.804Z,23.89
2017-07-09T09:42:11.204Z,23.81
2017-07-09T09:44:38.596Z,23.90
2017-07-09T09:47:05.997Z,24.14
2017-07-09T09:49:33.384Z,24.18
2017-07-09T09:52:01.044Z,24.10
2017-07-09T09:54:28.563Z,24.07
2017-07-09T09:56:55.959Z,23.96
2017-07-09T09:59:23.359Z,24.14
2017-07-09T10:01:50.751Z,24.27
2017-07-09T10:04:18.144Z,24.42
2017-07-09T10:06:45.544Z,24.54
2017-07-09T10:09:12.927Z,24.38
2017-07-09T10:11:40.330Z,24.31
2017-07-09T10:14:07.719Z,24.29
2017-07-09T10:16:35.369Z,24.34
2017-07-09T10:19:02.747Z,24.46
2017-07-09T10:21:30.424Z,24.53
2017-07-09T10:23:57.843Z,24.77
2017-07-09T10:26:25.538Z,25.03
2017-07-09T10:28:52.936Z,25.30
2017-07-09T10:31:20.536Z,25.36
2017-07-09T10:33:47.938Z,25.47
2017-07-09T10:36:15.323Z,25.63
2017-07-09T10:38:42.736Z,25.59
2017-07-09T10:41:10.158Z,25.71
2017-07-09T10:43:37.563Z,25.89
2017-07-09T10:46:04.978Z,26.13
2017-07-09T10:48:32.377Z,26.13
2017-07-09T10:50:59.771Z,26.10
2017-07-09T10:53:27.184Z,25.94
2017-07-09T10:55:54.589Z,26.08
2017-07-09T10:58:21.985Z,26.06
2017-07-09T11:00:49.377Z,25.82
2017-07-09T11:03:16.775Z,25.98
2017-07-09T11:05:44.171Z,26.00
2017-07-09T11:08:11.576Z,26.18
2017-07-09T11:10:38.965Z,26.38
2017-07-09T11:13:06.363Z,26.59
2017-07-09T11:15:33.759Z,26.58
2017-07-09T11:18:01.184Z,26.75
2017-07-09T11:20:28.587Z,27.01
2017-07-09T11:22:55.993Z,27.15
2017-07-09T11:25:23.384Z,27.07
2017-07-09T11:27:50.780Z,27.25
2017-07-09T11:30:18.172Z,27.06
2017-07-09T11:32:45.579Z,26.76
2017-07-09T11:35:13.174Z,26.62
2017-07-09T11:37:40.575Z,26.84
2017-07-09T11:40:07.968Z,26.58
2017-07-09T11:42:35.388Z,26.44
2017-07-09T11:45:02.779Z,26.00
2017-07-09T11:47:30.187Z,26.09
2017-07-09T11:49:57.583Z,26.18
2017-07-09T11:52:25.211Z,26.05
2017-07-09T11:54:52.616Z,26.18
2017-07-09T11:57:20.008Z,26.37
2017-07-09T11:59:47.440Z,26.55
2017-07-09T12:02:14.832Z,26.77
2017-07-09T12:04:42.228Z,26.77
2017-07-09T12:07:09.620Z,26.80
2017-07-09T12:09:37.021Z,26.74
2017-07-09T12:12:04.426Z,26.63
2017-07-09T12:14:31.827Z,26.44
2017-07-09T12:16:59.224Z,26.20
2017-07-09T12:19:26.623Z,26.40
2017-07-09T12:21:54.022Z,26.62
2017-07-09T12:24:21.420Z,26.85
2017-07-09T12:26:48.808Z,26.88
2017-07-09T12:29:16.200Z,27.06
2017-07-09T12:31:43.588Z,27.07
2017-07-09T12:34:10.998Z,27.08
2017-07-09T12:36:38.391Z,27.14
2017-07-09T12:39:05.792Z,27.27
2017-07-09T12:41:33.195Z,27.00
2017-07-09T12:44:00.592Z,26.98
2017-07-09T12:46:27.984Z,26.98
2017-07-09T12:48:55.392Z,26.98
2017-07-09T12:51:22.776Z,27.13
2017-07-09T12:53:50.204Z,26.88
2017-07-09T12:56:17.588Z,26.75
2017-07-09T12:58:44.980Z,26.86
2017-07-09T13:01:12.380Z,26.72
2017-07-09T13:03:39.784Z,26.62
2017-07-09T13:06:07.179Z,26.77
2017-07-09T13:08:34.567Z,26.91
2017-07-09T13:11:01.970Z,27.01
2017-07-09T13:13:29.362Z,26.89
2017-07-09T13:15:57.572Z,27.02
2017-07-09T13:18:25.252Z,27.07
2017-07-09T13:20:52.648Z,26.90
2017-07-09T13:23:20.051Z,26.76
2017-07-09T13:25:47.440Z,26.87
2017-07-09T13:28:14.834Z,27.00
2017-07-09T13:30:42.235Z,26.76
2017-07-09T13:33:09.629Z,26.96
2017-07-09T13:35:37.024Z,27.06
2017-07-09T13:38:04.699Z,27.25
2017-07-09T13:40:32.097Z,27.15
2017-07-09T13:42:59.714Z,27.30
2017-07-09T13:45:27.115Z,27.48
2017-07-09T13:47:54.507Z,27.53
2017-07-09T13:50:21.905Z,27.66
2017-07-09T13:52:49.291Z,27.85
2017-07-09T13:55:16.695Z,27.89
2017-07-09T13:57:44.091Z,27.47
2017-07-09T14:00:11.488Z,27.64
2017-07-09T14:02:38.882Z,27.43
2017-07-09T14:05:06.520Z,27.47
2017-07-09T14:07:33.908Z,27.48
2017-07-09T14:10:01.634Z,27.38
2017-07-09T14:12:29.032Z,27.54
2017-07-09T14:14:56.424Z,27.40
2017-07-09T14:17:23.824Z,27.34
2017-07-09T14:19:51.224Z,27.39
2017-07-09T14:22:18.627Z,27.50
2017-07-09T14:24:46.043Z,27.37
2017-07-09T14:27:13.440Z,27.21
2017-07-09T14:29:40.832Z,27.13
2017-07-09T14:32:08.241Z,27.37
2017-07-09T14:34:35.897Z,27.40
2017-07-09T14:37:03.295Z,27.17
2017-07-09T14:39:30.692Z,26.81
2017-07-09T14:41:58.089Z,26.67
2017-07-09T14:44:25.475Z,26.46
2017-07-09T14:46:52.899Z,26.63
2017-07-09T14:49:20.288Z,26.83
2017-07-09T14:51:47.682Z,26.90
2017-07-09T14:54:15.072Z,26.99
2017-07-09T14:56:42.468Z,27.23
2017-07-09T14:59:10.156Z,27.23
2017-07-09T15:01:37.555Z,27.34
2017-07-09T15:04:04.951Z,27.48
2017-07-09T15:06:32.628Z,27.62
2017-07-09T15:09:00.075Z,27.73
2017-07-09T15:11:27.467Z,27.43
2017-07-09T15:13:54.867Z,27.44
2017-07-09T15:16:22.264Z,27.51
2017-07-09T15:18:49.658Z,27.59
2017-07-09T15:21:17.067Z,27.61
2017-07-09T15:23:44.467Z,27.62
2017-07-09T15:26:11.865Z,27.69
2017-07-09T15:28:39.268Z,27.76
2017-07-09T15:31:06.670Z,27.47
2017-07-09T15:33:34.055Z,27.44
2017-07-09T15:36:01.455Z,27.17
2017-07-09T15:38:28.852Z,27.06
2017-07-09T15:40:56.240Z,27.01
2017-07-09T15:43:23.647Z,26.95
2017-07-09T15:45:51.041Z,26.97
2017-07-09T15:48:18.444Z,27.04
2017-07-09T15:50:46.129Z,26.90
2017-07-09T15:53:13.532Z,26.84
2017-07-09T15:55:40.928Z,26.64
2017-07-09T15:58:08.324Z,26.63
2017-07-09T16:00:35.738Z,26.63
2017-07-09T16:03:03.122Z,26.57
2017-07-09T16:05:30.766Z,26.57
2017-07-09T16:07:58.164Z,26.67
2017-07-09T16:10:25.561Z,26.62
2017-07-09T16:12:52.953Z,26.51
2017-07-09T16:15:20.347Z,26.40
2017-07-09T16:17:47.744Z,26.48
2017-07-09T16:20:15.131Z,26.38
2017-07-09T16:22:42.533Z,26.41
2017-07-09T16:25:09.924Z,26.26
2017-07-09T16:27:37.327Z,26.17
2017-07-09T16:30:04.720Z,26.25
2017-07-09T16:32:32.112Z,26.08
2017-07-09T16:34:59.835Z,26.33
2017-07-09T16:37:27.230Z,26.51
2017-07-09T16:39:54.788Z,26.49
2017-07-09T16:42:22.180Z,26.43
2017-07-09T16:44:49.571Z,26.31
2017-07-09T16:47:16.960Z,26.26
2017-07-09T16:49:44.365Z,26.01
2017-07-09T16:52:11.760Z,25.94
2017-07-09T16:54:39.161Z,25.86
2017-07-09T16:57:06.559Z,25.80
2017-07-09T16:59:33.967Z,25.75
2017-07-09T17:02:01.578Z,25.66
2017-07-09T17:04:28.967Z,25.67
2017-07-09T17:06:56.367Z,25.72
2017-07-09T17:09:23.764Z,25.86
2017-07-09T17:11:51.164Z,25.91
2017-07-09T17:14:18.636Z,25.95
2017-07-09T17:16:46.033Z,25.88
2017-07-09T17:19:13.427Z,25.99
2017-07-09T17:21:40.826Z,26.03
2017-07-09T17:24:08.217Z,26.01
2017-07-09T17:26:35.607Z,25.90
2017-07-09T17:29:03.012Z,26.08
2017-07-09T17:31:30.412Z,26.23
2017-07-09T17:33:57.837Z,26.17
2017-07-09T17:36:25.228Z,26.25
2017-07-09T17:38:52.623Z,26.29
2017-07-09T17:41:20.244Z,26.36
2017-07-09T17:43:47.684Z,26.43
2017-07-09T17:46:15.077Z,26.44
2017-07-09T17:48:42.467Z,26.29
2017-07-09T17:51:09.862Z,26.26
2017-07-09T17:53:37.251Z,26.35
2017-07-09T17:56:04.655Z,26.48
2017-07-09T17:58:32.048Z,26.42
2017-07-09T18:00:59.446Z,26.55
2017-07-09T18:03:26.832Z,26.52
2017-07-09T18:05:54.240Z,26.56
2017-07-09T18:08:21.627Z,26.44
2017-07-09T18:10:49.022Z,26.41
2017-07-09T18:13:16.416Z,26.36
2017-07-09T18:15:43.815Z,26.39
2017-07-09T18:18:11.217Z,26.47
2017-07-09T18:20:38.607Z,26.37
2017-07-09T18:23:05.994Z,26.15
2017-07-09T18:25:33.396Z,26.21
2017-07-09T18:28:00.784Z,26.18
2017-07-09T18:30:28.230Z,26.20
2017-07-09T18:32:55.571Z,26.12
2017-07-09T18:35:22.964Z,26.17
2017-07-09T18:37:50.619Z,26.25
2017-07-09T18:40:18.007Z,26.29
2017-07-09T18:42:45.399Z,26.36
2017-07-09T18:45:12.803Z,26.40
2017-07-09T18:47:40.445Z,26.45
2017-07-09T18:50:07.847Z,26.45
2017-07-09T18:52:35.228Z,26.21
2017-07-09T18:55:02.627Z,26.14
2017-07-09T18:57:30.272Z,26.22
2017-07-09T18:59:57.663Z,26.31
2017-07-09T19:02:25.062Z,26.33
2017-07-09T19:04:52.460Z,26.24
2017-07-09T19:07:19.856Z,26.34
2017-07-09T19:09:47.552Z,26.35
2017-07-09T19:12:15.212Z,26.28
2017-07-09T19:14:42.878Z,26.19
2017-07-09T19:17:10.280Z,26.24
2017-07-09T19:19:37.673Z,26.29
2017-07-09T19:22:05.064Z,26.14
2017-07-09T19:24:32.453Z,26.14
2017-07-09T19:26:59.857Z,26.19
2017-07-09T19:29:27.249Z,26.14
2017-07-09T19:31:54.659Z,26.14
2017-07-09T19:34:22.056Z,26.24
2017-07-09T19:36:49.448Z,26.12
2017-07-09T19:39:16.840Z,26.16
2017-07-09T19:41:44.232Z,26.13
2017-07-09T19:44:11.631Z,26.16
2017-07-09T19:46:39.032Z,26.12
2017-07-09T19:49:06.424Z,26.15
2017-07-09T19:51:33.843Z,26.13
2017-07-09T19:54:01.266Z,26.09
2017-07-09T19:56:28.671Z,26.04
2017-07-09T19:58:56.063Z,25.97
2017-07-09T20:01:23.464Z,26.02
2017-07-09T20:03:50.851Z,26.03
2017-07-09T20:06:18.268Z,25.92
2017-07-09T20:08:45.647Z,25.90
2017-07-09T20:11:13.051Z,25.67
2017-07-09T20:13:40.444Z,25.51
2017-07-09T20:16:07.845Z,25.37
2017-07-09T20:18:35.247Z,25.42
2017-07-09T20:21:02.642Z,25.50
2017-07-09T20:23:30.026Z,25.54
2017-07-09T20:25:57.422Z,25.53
2017-07-09T20:28:24.824Z,25.42
2017-07-09T20:30:52.222Z,25.46
2017-07-09T20:33:19.618Z,25.47
2017-07-09T20:35:47.004Z,25.39
2017-07-09T20:38:14.401Z,25.24
2017-07-09T20:40:41.796Z,25.10
2017-07-09T20:43:09.201Z,25.02
2017-07-09T20:45:36.823Z,25.06
2017-07-09T20:48:04.226Z,25.02
2017-07-09T20:50:31.617Z,25.03
2017-07-09T20:52:59.021Z,24.96
2017-07-09T20:55:26.408Z,24.73
2017-07-09T20:57:53.805Z,24.77
2017-07-09T21:00:21.193Z,24.84
2017-07-09T21:02:48.595Z,24.82
2017-07-09T21:05:15.977Z,24.84
2017-07-09T21:07:43.383Z,24.86
2017-07-09T21:10:10.779Z,24.79
2017-07-09T21:12:38.175Z,24.79
2017-07-09T21:15:05.575Z,24.70
2017-07-09T21:17:32.976Z,24.68
2017-07-09T21:20:00.362Z,24.47
2017-07-09T21:22:27.751Z,24.48
2017-07-09T21:24:55.147Z,24.49
2017-07-09T21:27:22.539Z,24.47
2017-07-09T21:29:49.936Z,24.42
2017-07-09T21:32:17.328Z,24.45
2017-07-09T21:34:44.724Z,24.45
2017-07-09T21:37:12.120Z,24.38
2017-07-09T21:39:39.738Z,24.37
2017-07-09T21:42:07.131Z,24.38
2017-07-09T21:44:34.530Z,24.26
2017-07-09T21:47:01.921Z,24.28
2017-07-09T21:49:29.318Z,24.31
2017-07-09T21:51:56.711Z,24.16
2017-07-09T21:54:24.114Z,24.11
2017-07-09T21:56:51.511Z,24.06
2017-07-09T21:59:18.912Z,24.07
2017-07-09T22:01:46.308Z,24.02
2017-07-09T22:04:13.710Z,24.01
2017-07-09T22:06:41.100Z,23.87
2017-07-09T22:09:08.502Z,23.81
2017-07-09T22:11:35.895Z,23.71
2017-07-09T22:14:03.298Z,23.79
2017-07-09T22:16:30.687Z,23.79
2017-07-09T22:18:58.121Z,23.83
2017-07-09T22:21:25.504Z,23.76
2017-07-09T22:23:52.907Z,23.75
2017-07-09T22:26:20.303Z,23.61
2017-07-09T22:28:47.696Z,23.62
2017-07-09T22:31:15.412Z,23.57
2017-07-09T22:33:43.015Z,23.52
2017-07-09T22:36:10.422Z,23.48
2017-07-09T22:38:37.804Z,23.45
2017-07-09T22:41:05.195Z,23.40
2017-07-09T22:43:32.590Z,23.30
2017-07-09T22:45:59.989Z,23.32
2017-07-09T22:48:27.383Z,23.34
2017-07-09T22:50:54.784Z,23.23
2017-07-09T22:53:22.183Z,23.09
2017-07-09T22:55:49.580Z,23.08
2017-07-09T22:58:16.973Z,23.03
2017-07-09T23:00:44.386Z,23.09
2017-07-09T23:03:12.614Z,23.02
2017-07-09T23:05:40.018Z,22.89
2017-07-09T23:08:07.415Z,22.94
2017-07-09T23:10:34.819Z,22.93
2017-07-09T23:13:02.204Z,22.82
2017-07-09T23:15:29.601Z,22.78
2017-07-09T23:17:56.987Z,22.82
2017-07-09T23:20:24.391Z,22.79
2017-07-09T23:22:51.787Z,22.85
2017-07-09T23:25:19.204Z,22.73
2017-07-09T23:27:46.627Z,22.77
2017-07-09T23:30:14.034Z,22.71
2017-07-09T23:32:41.427Z,22.46
2017-07-09T23:35:08.831Z,22.36
2017-07-09T23:37:36.233Z,22.09
2017-07-09T23:40:03.631Z,21.71
2017-07-09T23:42:31.029Z,21.67
2017-07-09T23:44:58.694Z,21.74
2017-07-09T23:47:26.091Z,21.72
2017-07-09T23:49:53.487Z,21.56
2017-07-09T23:52:20.899Z,21.40
2017-07-09T23:54:48.303Z,21.27
2017-07-09T23:57:15.711Z,21.14
2017-07-09T23:59:43.108Z,21.07
